Time;durP1;ratioP1;P1;durP2;ratioP2;P2;SDS_P1;SDS_P2;PMS_P1;PMS_P2;Temp;Humidity;BMP_temperature;BMP_pressure;BME280_temperature;BME280_humidity;BME280_pressure;Samples;Min_cycle;Max_cycle;Signal;HPM_P1;HPM_P2
2021/12/20 00:00:24;;;;;;;9.40;2.20;;;9.70;99.90;;;;;;10407406;28;20080;-64
2021/12/20 00:05:25;;;;;;;10.68;2.15;;;9.70;99.90;;;;;;10402455;28;20080;-64
2021/12/20 00:10:26;;;;;;;8.63;2.05;;;9.70;99.90;;;;;;10408102;28;20419;-67
2021/12/20 00:15:27;;;;;;;10.13;2.00;;;9.70;99.90;;;;;;10407853;28;20021;-65
2021/12/20 00:20:28;;;;;;;8.90;2.10;;;9.70;99.90;;;;;;10406483;28;20512;-68
2021/12/20 00:25:28;;;;;;;12.00;2.63;;;9.60;99.90;;;;;;10406891;28;20132;-65
2021/12/20 00:30:29;;;;;;;9.52;1.88;;;9.60;99.90;;;;;;10407151;28;20045;-68
2021/12/20 00:35:30;;;;;;;9.68;2.20;;;9.60;99.90;;;;;;10411338;28;20044;-67
2021/12/20 00:40:30;;;;;;;7.63;2.17;;;9.60;99.90;;;;;;10404647;28;20068;-63
2021/12/20 00:45:34;;;;;;;7.25;1.73;;;9.60;99.90;;;;;;10407068;28;20025;-61
2021/12/20 00:50:36;;;;;;;5.68;1.70;;;9.60;99.90;;;;;;10405340;28;20143;-63
2021/12/20 00:55:37;;;;;;;12.48;2.08;;;9.60;99.90;;;;;;10404172;28;20029;-66
2021/12/20 01:00:48;;;;;;;8.93;1.90;;;9.60;99.90;;;;;;10399200;28;20076;-67
2021/12/20 01:05:49;;;;;;;4.55;1.70;;;9.60;99.90;;;;;;10405878;28;20021;-67
2021/12/20 01:10:53;;;;;;;8.88;2.42;;;9.60;99.90;;;;;;10405476;28;20033;-68
2021/12/20 01:15:55;;;;;;;10.93;1.80;;;9.60;99.90;;;;;;10405424;28;20033;-61
2021/12/20 01:20:55;;;;;;;12.07;2.00;;;9.60;99.90;;;;;;10397456;28;20027;-65
2021/12/20 01:25:56;;;;;;;12.93;2.30;;;9.50;99.90;;;;;;10404222;28;20021;-65
2021/12/20 01:30:57;;;;;;;10.70;2.90;;;9.50;99.90;;;;;;10404262;28;20442;-64
2021/12/20 01:35:58;;;;;;;9.88;1.60;;;9.60;99.90;;;;;;10403558;28;20040;-64
2021/12/20 01:40:59;;;;;;;9.20;2.10;;;9.50;99.90;;;;;;10408036;28;20029;-63
2021/12/20 01:46:00;;;;;;;7.60;1.70;;;9.50;99.90;;;;;;10410894;28;20013;-64
2021/12/20 01:56:09;;;;;;;10.32;2.00;;;9.50;99.90;;;;;;10404725;28;20030;-65
2021/12/20 02:11:21;;;;;;;11.45;1.98;;;9.50;99.90;;;;;;10396750;28;20524;-62
2021/12/20 02:16:23;;;;;;;5.15;1.73;;;9.50;99.90;;;;;;10409099;28;20183;-69
2021/12/20 02:21:24;;;;;;;10.05;1.70;;;9.50;99.90;;;;;;10402375;28;20018;-64
2021/12/20 02:26:25;;;;;;;9.95;1.60;;;9.50;99.90;;;;;;10402341;28;20407;-67
2021/12/20 02:41:32;;;;;;;5.63;1.55;;;9.50;99.90;;;;;;10402564;28;20044;-60
2021/12/20 02:51:40;;;;;;;8.55;2.30;;;9.50;99.90;;;;;;10402257;28;20103;-66
2021/12/20 02:56:42;;;;;;;8.93;2.03;;;9.40;99.90;;;;;;10398594;28;20048;-62
2021/12/20 03:01:51;;;;;;;5.53;1.55;;;9.40;99.90;;;;;;10399420;28;20506;-65
2021/12/20 03:07:04;;;;;;;16.33;1.52;;;9.40;99.90;;;;;;10403415;28;20048;-62
2021/12/20 03:12:08;;;;;;;8.45;1.48;;;9.40;99.90;;;;;;10390096;28;20447;-64
2021/12/20 03:17:09;;;;;;;11.43;1.90;;;9.40;99.90;;;;;;10400200;28;20037;-64
2021/12/20 03:22:10;;;;;;;11.13;1.88;;;9.80;99.90;;;;;;10400254;28;20029;-66
2021/12/20 03:27:11;;;;;;;8.88;1.65;;;9.40;99.90;;;;;;10401425;28;20505;-63
2021/12/20 03:32:11;;;;;;;7.93;1.70;;;9.40;99.90;;;;;;10400196;28;20033;-67
2021/12/20 03:37:12;;;;;;;7.85;2.17;;;9.40;99.90;;;;;;10401455;28;20026;-59
2021/12/20 03:42:13;;;;;;;3.42;0.90;;;9.40;99.90;;;;;;10402779;28;20041;-69
2021/12/20 03:47:14;;;;;;;6.28;1.60;;;9.40;99.90;;;;;;10401345;28;20183;-67
2021/12/20 03:52:15;;;;;;;7.97;1.65;;;9.40;99.90;;;;;;10400769;28;20111;-63
2021/12/20 03:57:16;;;;;;;4.57;1.27;;;9.40;99.90;;;;;;10393727;28;20075;-66
2021/12/20 04:02:19;;;;;;;10.40;1.67;;;9.40;99.90;;;;;;10409515;28;20068;-62
2021/12/20 04:07:20;;;;;;;4.03;1.20;;;9.40;99.90;;;;;;10408244;28;20029;-66
2021/12/20 04:12:20;;;;;;;6.45;1.63;;;9.40;99.90;;;;;;10407320;28;20586;-67
2021/12/20 04:17:21;;;;;;;4.55;0.98;;;9.40;99.90;;;;;;10409713;28;20056;-62
2021/12/20 04:22:22;;;;;;;6.30;1.77;;;9.30;99.90;;;;;;10406662;28;20036;-68
2021/12/20 04:27:22;;;;;;;2.88;1.10;;;9.40;99.90;;;;;;10406355;28;20022;-65
2021/12/20 04:32:23;;;;;;;7.50;1.77;;;9.40;99.90;;;;;;10406162;28;20034;-67
2021/12/20 04:37:24;;;;;;;4.75;1.13;;;9.30;99.90;;;;;;10405745;28;20033;-66
2021/12/20 04:42:25;;;;;;;6.60;1.05;;;9.30;99.90;;;;;;10403426;28;20037;-66
2021/12/20 04:47:25;;;;;;;5.10;1.00;;;9.30;99.90;;;;;;10403369;28;20067;-66
2021/12/20 04:52:28;;;;;;;8.40;1.27;;;9.30;99.90;;;;;;10405647;28;20057;-67
2021/12/20 04:57:29;;;;;;;6.30;1.30;;;9.30;99.90;;;;;;10395443;28;20026;-66
2021/12/20 05:02:29;;;;;;;5.40;0.90;;;9.30;99.90;;;;;;10405461;28;20119;-70
2021/12/20 05:07:30;;;;;;;8.40;1.35;;;9.30;99.90;;;;;;10404723;28;20034;-67
2021/12/20 05:12:31;;;;;;;5.47;0.90;;;9.30;99.90;;;;;;10404618;28;20451;-71
2021/12/20 05:17:32;;;;;;;5.22;0.80;;;9.30;99.90;;;;;;10404255;28;20029;-67
2021/12/20 05:22:32;;;;;;;8.77;1.30;;;9.20;99.90;;;;;;10402897;28;20394;-72
2021/12/20 05:27:33;;;;;;;6.30;1.38;;;9.20;99.90;;;;;;10403653;28;20026;-68
2021/12/20 05:32:35;;;;;;;4.70;1.10;;;9.20;99.90;;;;;;10403785;28;20245;-70
2021/12/20 05:37:37;;;;;;;4.75;0.80;;;9.20;99.90;;;;;;10398405;28;20042;-70
2021/12/20 05:42:37;;;;;;;7.53;1.10;;;9.20;99.90;;;;;;10402023;28;20034;-63
2021/12/20 05:47:39;;;;;;;6.97;1.30;;;9.20;99.90;;;;;;10403759;28;20033;-64
2021/12/20 05:52:39;;;;;;;5.50;1.20;;;9.20;99.90;;;;;;10402914;28;20054;-66
2021/12/20 05:57:40;;;;;;;6.40;1.30;;;9.20;99.90;;;;;;10395161;28;20035;-72
2021/12/20 06:02:43;;;;;;;4.88;1.10;;;9.20;99.90;;;;;;10402108;28;20109;-65
2021/12/20 06:07:43;;;;;;;4.22;0.95;;;9.20;99.90;;;;;;10402617;28;20448;-71
2021/12/20 06:12:45;;;;;;;11.93;1.60;;;9.20;99.90;;;;;;10402334;28;20040;-67
2021/12/20 06:17:46;;;;;;;4.68;1.10;;;9.20;99.90;;;;;;10403138;28;20487;-71
2021/12/20 06:22:46;;;;;;;6.50;1.00;;;9.20;99.90;;;;;;10400669;28;20087;-71
2021/12/20 06:27:47;;;;;;;7.53;1.15;;;9.20;99.90;;;;;;10401486;28;20030;-70
2021/12/20 06:32:48;;;;;;;6.18;1.10;;;9.20;99.90;;;;;;10401630;28;20407;-69
2021/12/20 06:37:59;;;;;;;3.03;0.90;;;9.10;99.90;;;;;;10401697;28;20487;-71
2021/12/20 06:43:00;;;;;;;4.57;1.13;;;9.20;99.90;;;;;;10400255;28;20033;-73
2021/12/20 06:48:01;;;;;;;2.95;1.00;;;9.10;99.90;;;;;;10399046;28;20086;-64
2021/12/20 06:53:03;;;;;;;7.10;1.35;;;9.20;99.90;;;;;;10398459;28;20392;-72
2021/12/20 06:58:04;;;;;;;5.70;1.17;;;9.10;99.90;;;;;;10391102;28;20021;-72
2021/12/20 07:03:05;;;;;;;5.60;1.45;;;9.10;99.90;;;;;;10398496;28;20454;-72
2021/12/20 07:08:06;;;;;;;7.85;1.40;;;9.10;99.90;;;;;;10400738;28;20117;-66
2021/12/20 07:13:08;;;;;;;2.63;0.85;;;9.10;99.90;;;;;;10397753;28;20041;-63
2021/12/20 07:18:09;;;;;;;4.93;1.67;;;9.10;99.90;;;;;;10401312;28;20036;-66
2021/12/20 07:23:09;;;;;;;5.13;1.10;;;9.10;99.90;;;;;;10399429;28;20026;-67
2021/12/20 07:28:10;;;;;;;6.07;0.88;;;9.10;99.90;;;;;;10387115;28;20111;-66
2021/12/20 07:33:11;;;;;;;5.15;1.48;;;9.10;99.90;;;;;;10371049;28;20164;-65
2021/12/20 07:38:14;;;;;;;4.68;1.55;;;9.10;99.90;;;;;;10406721;28;20021;-65
2021/12/20 07:43:17;;;;;;;4.60;0.82;;;9.00;99.90;;;;;;10406321;28;20041;-64
2021/12/20 07:48:19;;;;;;;4.45;0.90;;;9.00;99.90;;;;;;10374131;28;20056;-67
2021/12/20 07:53:21;;;;;;;5.35;1.25;;;9.00;99.90;;;;;;10388498;28;20052;-67
2021/12/20 07:58:21;;;;;;;2.78;0.68;;;9.00;99.90;;;;;;10398380;28;20036;-65
2021/12/20 08:03:22;;;;;;;3.67;0.75;;;9.00;99.90;;;;;;10405030;28;20395;-67
2021/12/20 08:08:23;;;;;;;3.40;0.80;;;9.00;99.90;;;;;;10404800;28;20033;-66
2021/12/20 08:13:24;;;;;;;4.45;0.60;;;9.00;99.90;;;;;;10405275;28;20091;-67
2021/12/20 08:18:25;;;;;;;2.78;0.88;;;9.00;99.90;;;;;;10405377;28;20614;-65
2021/12/20 08:23:25;;;;;;;2.60;0.93;;;9.00;99.90;;;;;;10386783;28;20038;-67
2021/12/20 08:28:27;;;;;;;4.82;1.17;;;8.90;99.90;;;;;;10403118;28;20487;-67
2021/12/20 08:33:27;;;;;;;7.50;1.10;;;9.00;99.90;;;;;;10402109;28;20037;-67
2021/12/20 08:38:28;;;;;;;3.17;0.80;;;8.90;99.90;;;;;;10378963;28;20022;-67
2021/12/20 08:43:29;;;;;;;5.18;0.98;;;8.90;99.90;;;;;;10396083;28;20388;-65
2021/12/20 08:48:31;;;;;;;1.38;1.00;;;9.00;99.90;;;;;;10393199;28;20033;-64
2021/12/20 08:53:32;;;;;;;2.85;0.90;;;9.00;99.90;;;;;;10403751;28;20439;-66
2021/12/20 08:58:33;;;;;;;3.13;0.73;;;9.00;99.90;;;;;;10398226;28;20028;-66
2021/12/20 09:03:34;;;;;;;4.28;0.85;;;9.00;99.90;;;;;;10403629;28;20033;-67
2021/12/20 09:08:35;;;;;;;4.57;0.80;;;9.00;99.90;;;;;;10404544;28;20772;-63
2021/12/20 09:13:36;;;;;;;6.07;1.27;;;9.00;99.90;;;;;;10404098;28;20037;-67
2021/12/20 09:18:37;;;;;;;3.85;1.15;;;9.00;99.90;;;;;;10404230;28;20040;-64
2021/12/20 09:23:39;;;;;;;5.88;2.15;;;9.10;99.90;;;;;;10402012;28;20797;-64
2021/12/20 09:28:40;;;;;;;2.65;0.98;;;9.10;99.90;;;;;;10379093;28;20034;-67
2021/12/20 09:33:41;;;;;;;5.05;1.00;;;9.10;99.90;;;;;;10372328;28;20065;-67
2021/12/20 09:38:42;;;;;;;5.07;1.10;;;9.10;99.90;;;;;;10368337;28;20533;-67
2021/12/20 09:43:47;;;;;;;5.47;1.10;;;9.10;99.90;;;;;;10384413;28;20033;-67
2021/12/20 09:48:49;;;;;;;1.10;0.82;;;9.10;99.90;;;;;;10385743;28;20079;-67
2021/12/20 09:53:51;;;;;;;7.18;1.50;;;9.10;99.90;;;;;;10401309;28;20053;-66
2021/12/20 09:58:55;;;;;;;4.70;1.13;;;9.10;99.90;;;;;;10393430;28;20030;-66
2021/12/20 10:03:56;;;;;;;2.58;1.05;;;9.20;99.90;;;;;;10400368;28;20483;-67
2021/12/20 10:09:04;;;;;;;9.82;2.05;;;9.20;99.90;;;;;;10401033;28;20034;-67
2021/12/20 10:14:06;;;;;;;6.50;1.50;;;9.30;99.90;;;;;;10390371;28;20909;-67
2021/12/20 10:19:28;;;;;;;6.90;1.50;;;9.30;99.90;;;;;;10390956;28;20029;-66
2021/12/20 10:24:38;;;;;;;7.95;1.92;;;9.40;99.80;;;;;;10391503;28;20476;-67
2021/12/20 10:29:39;;;;;;;7.80;1.73;;;9.50;99.70;;;;;;10400781;28;20026;-67
2021/12/20 10:34:40;;;;;;;12.15;1.80;;;9.50;99.60;;;;;;10400310;28;20041;-67
2021/12/20 10:39:45;;;;;;;7.15;2.35;;;9.60;99.50;;;;;;10399535;28;20029;-67
2021/12/20 10:45:17;;;;;;;12.02;1.70;;;9.80;99.50;;;;;;10401671;28;20091;-66
2021/12/20 10:50:27;;;;;;;6.85;1.58;;;9.70;99.20;;;;;;10400589;28;20063;-68
2021/12/20 10:55:35;;;;;;;6.75;1.55;;;9.80;99.30;;;;;;10400085;28;20045;-67
2021/12/20 11:00:37;;;;;;;10.33;1.60;;;9.90;99.20;;;;;;10389976;28;20024;-68
2021/12/20 11:11:11;;;;;;;10.05;2.13;;;9.90;99.20;;;;;;10408423;28;20034;-63
2021/12/20 11:16:33;;;;;;;7.23;2.13;;;9.90;99.20;;;;;;10408498;28;20497;-64
2021/12/20 11:21:43;;;;;;;12.15;2.35;;;10.00;99.10;;;;;;10406890;28;20025;-61
2021/12/20 11:26:44;;;;;;;13.30;2.20;;;10.00;99.20;;;;;;10407796;28;20082;-63
2021/12/20 11:31:45;;;;;;;10.93;2.90;;;10.00;99.20;;;;;;10407850;28;20033;-66
2021/12/20 11:36:47;;;;;;;11.50;1.98;;;10.00;99.20;;;;;;10406943;28;20545;-67
2021/12/20 11:41:48;;;;;;;12.27;2.80;;;10.00;99.20;;;;;;10407637;28;20116;-66
2021/12/20 11:47:03;;;;;;;7.25;2.08;;;10.00;99.30;;;;;;10407233;28;20029;-63
2021/12/20 11:52:18;;;;;;;4.80;1.63;;;10.00;99.20;;;;;;10405380;28;20064;-64
2021/12/20 11:57:41;;;;;;;7.88;1.70;;;10.00;99.20;;;;;;10398629;28;20324;-65
2021/12/20 12:02:44;;;;;;;8.20;1.67;;;9.90;99.10;;;;;;10405935;28;20076;-66
2021/12/20 12:07:46;;;;;;;6.43;1.42;;;9.90;99.40;;;;;;10405159;28;20061;-66
2021/12/20 12:13:00;;;;;;;13.25;2.63;;;9.90;99.40;;;;;;10402891;28;20393;-67
2021/12/20 12:18:04;;;;;;;8.60;1.77;;;9.90;99.20;;;;;;10385176;28;20805;-66
2021/12/20 12:23:15;;;;;;;8.57;1.80;;;9.90;99.40;;;;;;10395682;28;20037;-66
2021/12/20 12:28:18;;;;;;;5.68;1.45;;;9.90;99.30;;;;;;10403775;28;20053;-66
2021/12/20 12:33:19;;;;;;;7.28;1.75;;;9.80;99.40;;;;;;10388524;28;20056;-65
2021/12/20 12:38:38;;;;;;;7.18;1.52;;;9.80;99.40;;;;;;10403566;28;20059;-67
2021/12/20 12:43:59;;;;;;;7.10;1.37;;;9.70;99.20;;;;;;10408293;28;20051;-68
2021/12/20 12:49:00;;;;;;;9.57;1.40;;;9.70;99.20;;;;;;10407041;28;20280;-63
2021/12/20 12:54:00;;;;;;;4.38;1.73;;;9.70;99.40;;;;;;10378365;28;20049;-64
2021/12/20 12:59:16;;;;;;;12.05;1.92;;;9.70;99.40;;;;;;10394515;28;20442;-65
2021/12/20 13:04:17;;;;;;;8.45;1.67;;;9.90;99.30;;;;;;10406190;28;20359;-67
2021/12/20 13:09:31;;;;;;;6.30;1.80;;;9.60;99.40;;;;;;10402219;28;20026;-64
2021/12/20 13:14:34;;;;;;;5.50;1.80;;;9.60;99.30;;;;;;10403533;28;20157;-63
2021/12/20 13:19:36;;;;;;;9.63;1.38;;;9.60;99.40;;;;;;10401962;28;21344;-62
2021/12/20 13:24:36;;;;;;;9.10;1.42;;;9.60;99.50;;;;;;10401956;28;20041;-59
2021/12/20 13:29:38;;;;;;;4.05;1.27;;;9.60;99.40;;;;;;10401994;28;20026;-59
2021/12/20 13:34:39;;;;;;;5.82;1.70;;;9.50;99.30;;;;;;10402446;28;20132;-67
2021/12/20 13:39:50;;;;;;;6.18;1.20;;;9.60;99.60;;;;;;10402443;28;20484;-59
2021/12/20 13:44:52;;;;;;;5.63;1.15;;;9.50;99.30;;;;;;10402444;28;20040;-59
2021/12/20 13:49:52;;;;;;;10.07;1.20;;;9.50;99.30;;;;;;10403579;28;20036;-59
2021/12/20 13:54:54;;;;;;;7.00;1.30;;;9.50;99.30;;;;;;10402662;28;20049;-69
2021/12/20 13:59:57;;;;;;;6.10;1.30;;;9.40;99.30;;;;;;10393713;28;20096;-62
2021/12/20 14:05:13;;;;;;;7.00;1.23;;;9.40;99.30;;;;;;10403350;28;20431;-66
2021/12/20 14:10:21;;;;;;;6.07;1.42;;;9.40;99.10;;;;;;10401995;28;20033;-63
2021/12/20 14:15:25;;;;;;;5.75;1.23;;;9.30;99.20;;;;;;10401599;28;20071;-66
2021/12/20 14:20:41;;;;;;;5.38;1.20;;;9.30;99.20;;;;;;10400416;28;20025;-63
2021/12/20 14:25:47;;;;;;;4.15;1.23;;;9.30;99.00;;;;;;10400878;28;20111;-67
2021/12/20 14:31:06;;;;;;;5.72;1.80;;;9.30;99.20;;;;;;10398458;28;20071;-65
2021/12/20 14:36:07;;;;;;;4.25;1.35;;;9.30;99.10;;;;;;10402647;28;20068;-64
2021/12/20 14:41:19;;;;;;;2.38;0.90;;;9.20;99.10;;;;;;10390498;28;20125;-62
2021/12/20 14:46:37;;;;;;;3.55;1.00;;;9.20;99.00;;;;;;10400710;28;20701;-66
2021/12/20 14:51:38;;;;;;;3.33;0.75;;;9.20;99.10;;;;;;10399757;28;20933;-67
2021/12/20 14:56:47;;;;;;;2.00;0.93;;;9.20;99.20;;;;;;10396386;28;20060;-63
2021/12/20 15:01:49;;;;;;;4.30;0.90;;;9.10;99.10;;;;;;10397949;28;20368;-62
2021/12/20 15:06:57;;;;;;;4.20;1.20;;;9.20;99.20;;;;;;10399844;28;20065;-67
2021/12/20 15:11:58;;;;;;;2.92;1.10;;;9.10;99.10;;;;;;10398764;28;20480;-58
2021/12/20 15:16:59;;;;;;;2.45;0.90;;;9.00;99.20;;;;;;10400035;28;20021;-66
2021/12/20 15:21:59;;;;;;;2.53;1.00;;;9.10;99.20;;;;;;10398606;28;20029;-67
2021/12/20 15:27:00;;;;;;;3.90;1.20;;;9.10;99.10;;;;;;10399546;28;20032;-66
2021/12/20 15:32:01;;;;;;;45.13;3.15;;;9.20;99.10;;;;;;10400362;28;20136;-65
2021/12/20 15:37:02;;;;;;;12.60;1.65;;;9.20;99.10;;;;;;10402847;28;20570;-68
2021/12/20 15:42:06;;;;;;;8.95;1.42;;;9.30;99.10;;;;;;10400636;28;20018;-65
2021/12/20 15:47:07;;;;;;;7.40;1.48;;;9.20;99.00;;;;;;10400231;28;20043;-69
2021/12/20 15:52:08;;;;;;;10.60;1.48;;;9.30;99.10;;;;;;10399187;28;20093;-66
2021/12/20 15:57:08;;;;;;;4.22;1.35;;;9.30;99.00;;;;;;10402039;28;20121;-65
2021/12/20 16:02:10;;;;;;;26.70;2.38;;;9.30;99.00;;;;;;10406845;28;20453;-66
2021/12/20 16:07:11;;;;;;;21.35;2.17;;;9.30;99.10;;;;;;10406835;28;20022;-66
2021/12/20 16:12:12;;;;;;;7.65;1.33;;;9.40;99.00;;;;;;10407161;28;20038;-66
2021/12/20 16:17:13;;;;;;;9.00;2.13;;;9.40;99.00;;;;;;10407473;28;20017;-65
2021/12/20 16:22:13;;;;;;;9.40;1.50;;;9.30;99.10;;;;;;10396285;28;20032;-65
2021/12/20 16:27:14;;;;;;;11.50;1.88;;;9.20;99.50;;;;;;10406297;28;20025;-65
2021/12/20 16:32:15;;;;;;;8.80;1.48;;;9.10;99.20;;;;;;10406045;28;20043;-63
2021/12/20 16:37:16;;;;;;;3.53;1.33;;;9.00;99.10;;;;;;10408137;28;20036;-65
2021/12/20 16:42:19;;;;;;;4.68;1.20;;;8.90;99.00;;;;;;10406791;28;20048;-70
2021/12/20 16:48:08;;;;;;;7.80;1.75;;;8.80;98.90;;;;;;10405989;28;20478;-65
2021/12/20 16:52:41;;;;;;;4.35;1.50;;;8.80;98.80;;;;;;10407718;28;20045;-66
2021/12/20 16:57:42;;;;;;;5.93;1.73;;;8.70;98.80;;;;;;10397739;28;20410;-64
2021/12/20 17:02:54;;;;;;;3.10;1.80;;;8.60;98.80;;;;;;10404098;28;20037;-67
2021/12/20 17:07:54;;;;;;;4.90;1.88;;;8.50;98.60;;;;;;10398401;28;20057;-69
2021/12/20 17:12:56;;;;;;;3.70;1.70;;;8.50;98.60;;;;;;10389346;28;20124;-66
2021/12/20 17:17:57;;;;;;;4.25;1.85;;;8.40;98.60;;;;;;10395099;28;20071;-65
2021/12/20 17:22:58;;;;;;;5.35;1.83;;;8.30;98.50;;;;;;10403966;28;20033;-63
2021/12/20 17:28:00;;;;;;;5.30;2.33;;;8.30;98.50;;;;;;10402917;28;20562;-64
2021/12/20 17:33:02;;;;;;;5.82;1.70;;;8.30;98.50;;;;;;10403874;28;20478;-67
2021/12/20 17:38:02;;;;;;;7.50;2.90;;;8.20;98.40;;;;;;10403449;28;20025;-68
2021/12/20 17:43:07;;;;;;;6.45;2.10;;;8.20;98.40;;;;;;10401450;28;20032;-65
2021/12/20 17:48:08;;;;;;;4.63;2.05;;;8.20;98.30;;;;;;10399842;28;20479;-67
2021/12/20 17:53:08;;;;;;;4.20;2.03;;;8.20;98.20;;;;;;10398609;28;20497;-70
2021/12/20 17:58:10;;;;;;;5.07;2.58;;;8.20;98.20;;;;;;10400495;28;20037;-70
2021/12/20 18:03:10;;;;;;;4.30;2.17;;;8.20;98.20;;;;;;10401857;28;20021;-65
2021/12/20 18:08:11;;;;;;;7.07;2.53;;;8.20;98.10;;;;;;10402034;28;20030;-67
2021/12/20 18:13:12;;;;;;;6.03;2.35;;;8.10;98.30;;;;;;10402457;28;20501;-67
2021/12/20 18:18:13;;;;;;;5.35;1.92;;;8.10;98.10;;;;;;10400206;28;20395;-65
2021/12/20 18:23:13;;;;;;;5.55;2.63;;;8.10;98.00;;;;;;10400682;28;20033;-69
2021/12/20 18:28:14;;;;;;;6.53;2.40;;;8.10;98.00;;;;;;10392487;28;20022;-69
2021/12/20 18:33:15;;;;;;;5.10;2.58;;;8.00;98.00;;;;;;10400750;28;20030;-68
2021/12/20 18:38:33;;;;;;;5.40;2.80;;;8.00;97.90;;;;;;10400619;28;20077;-67
2021/12/20 18:43:35;;;;;;;4.63;2.70;;;8.00;97.70;;;;;;10397493;28;20096;-68
2021/12/20 18:48:36;;;;;;;4.53;2.30;;;7.90;97.90;;;;;;10394920;28;20353;-66
2021/12/20 18:53:37;;;;;;;5.03;2.80;;;7.90;97.90;;;;;;10389927;28;20038;-67
2021/12/20 18:58:37;;;;;;;4.40;2.50;;;8.00;97.90;;;;;;10379383;28;20057;-67
2021/12/20 19:03:38;;;;;;;5.25;2.50;;;8.20;97.80;;;;;;10378732;28;20480;-68
2021/12/20 19:08:40;;;;;;;9.35;2.95;;;8.10;97.80;;;;;;10386630;28;20032;-64
2021/12/20 19:13:52;;;;;;;6.57;2.85;;;8.10;97.90;;;;;;10384985;28;20034;-67
2021/12/20 19:18:52;;;;;;;8.82;3.60;;;8.00;97.90;;;;;;10378172;28;20041;-67
2021/12/20 19:23:54;;;;;;;6.03;2.70;;;8.00;97.90;;;;;;10384086;28;20032;-65
2021/12/20 19:28:55;;;;;;;5.30;2.58;;;7.90;97.90;;;;;;10390878;28;20030;-62
2021/12/20 19:33:57;;;;;;;6.72;2.97;;;7.90;98.00;;;;;;10394747;28;20038;-68
2021/12/20 19:39:03;;;;;;;8.55;2.78;;;7.80;97.90;;;;;;10401989;28;20029;-68
2021/12/20 19:44:04;;;;;;;7.57;3.08;;;7.80;97.90;;;;;;10401185;28;20018;-68
2021/12/20 19:49:05;;;;;;;10.27;3.80;;;7.80;97.90;;;;;;10405084;28;20125;-65
2021/12/20 19:54:05;;;;;;;8.10;2.80;;;7.70;97.80;;;;;;10399060;28;20525;-66
2021/12/20 19:59:12;;;;;;;7.53;2.60;;;7.70;97.80;;;;;;10400665;28;20030;-66
2021/12/20 20:04:17;;;;;;;7.47;2.80;;;7.70;97.80;;;;;;10399409;28;20503;-66
2021/12/20 20:09:20;;;;;;;4.50;2.35;;;7.70;97.80;;;;;;10405784;28;20068;-68
2021/12/20 20:14:21;;;;;;;6.57;2.90;;;7.70;97.80;;;;;;10398267;28;20037;-72
2021/12/20 20:19:23;;;;;;;5.50;2.70;;;7.60;97.80;;;;;;10394980;28;20026;-68
2021/12/20 20:24:24;;;;;;;9.63;2.80;;;7.60;97.70;;;;;;10392355;28;20025;-67
2021/12/20 20:29:25;;;;;;;5.90;2.65;;;7.60;97.70;;;;;;10387905;28;20037;-68
2021/12/20 20:34:26;;;;;;;5.72;2.72;;;7.50;97.70;;;;;;10385807;28;20038;-68
2021/12/20 20:39:26;;;;;;;4.65;2.70;;;7.50;97.60;;;;;;10397062;28;20491;-68
2021/12/20 20:44:27;;;;;;;5.18;3.10;;;7.50;97.60;;;;;;10394327;28;20341;-67
2021/12/20 20:49:30;;;;;;;4.35;2.47;;;7.50;97.60;;;;;;10403046;28;20026;-68
2021/12/20 20:54:31;;;;;;;8.32;3.10;;;7.40;97.50;;;;;;10396353;28;20507;-68
2021/12/20 20:59:32;;;;;;;4.18;2.25;;;7.40;97.50;;;;;;10391456;28;20022;-69
2021/12/20 21:04:33;;;;;;;8.55;3.33;;;7.40;97.70;;;;;;10398100;28;20017;-67
2021/12/20 21:09:42;;;;;;;7.60;2.85;;;7.40;97.40;;;;;;10397327;28;20028;-68
2021/12/20 21:14:44;;;;;;;8.70;3.78;;;7.30;97.60;;;;;;10396216;28;20404;-66
2021/12/20 21:19:45;;;;;;;6.55;3.20;;;7.30;97.40;;;;;;10403067;28;20431;-68
2021/12/20 21:24:46;;;;;;;7.47;3.60;;;7.30;97.30;;;;;;10383597;28;20030;-64
2021/12/20 21:29:46;;;;;;;10.05;3.70;;;7.30;97.30;;;;;;10379195;28;20249;-68
2021/12/20 21:34:48;;;;;;;8.60;4.00;;;7.30;97.30;;;;;;10382798;28;20447;-67
2021/12/20 21:39:49;;;;;;;7.80;4.10;;;7.20;97.30;;;;;;10383329;28;20030;-68
2021/12/20 21:44:50;;;;;;;8.40;4.18;;;7.20;97.30;;;;;;10382259;28;20451;-65
2021/12/20 21:49:50;;;;;;;12.65;4.78;;;7.20;97.50;;;;;;10384489;28;20021;-69
2021/12/20 21:54:51;;;;;;;8.93;4.32;;;7.20;97.20;;;;;;10379187;28;20054;-67
2021/12/20 21:59:52;;;;;;;9.60;4.60;;;7.20;97.20;;;;;;10380611;28;20041;-67
2021/12/20 22:04:53;;;;;;;7.38;4.22;;;7.10;97.10;;;;;;10368783;28;20088;-68
2021/12/20 22:09:54;;;;;;;7.05;4.13;;;7.10;97.10;;;;;;10370446;28;20076;-65
2021/12/20 22:14:54;;;;;;;9.93;4.53;;;7.10;97.00;;;;;;10374380;28;20080;-67
2021/12/20 22:19:55;;;;;;;8.25;4.20;;;7.10;97.00;;;;;;10371820;28;20018;-67
2021/12/20 22:24:56;;;;;;;8.20;4.07;;;7.10;97.00;;;;;;10370416;28;20028;-68
2021/12/20 22:29:57;;;;;;;9.30;3.65;;;7.00;97.00;;;;;;10382778;28;20049;-68
2021/12/20 22:34:58;;;;;;;6.07;3.63;;;7.20;97.00;;;;;;10378871;28;20048;-68
2021/12/20 22:39:59;;;;;;;11.02;3.97;;;7.20;96.80;;;;;;10374577;28;20077;-66
2021/12/20 22:45:00;;;;;;;8.27;4.28;;;7.10;96.80;;;;;;10372563;28;20041;-67
2021/12/20 22:50:03;;;;;;;6.90;4.18;;;7.10;96.80;;;;;;10370020;28;20384;-64
2021/12/20 22:55:05;;;;;;;7.00;4.18;;;7.20;96.80;;;;;;10370521;28;20054;-65
2021/12/20 23:00:16;;;;;;;8.13;3.85;;;7.00;96.80;;;;;;10374410;28;20029;-68
2021/12/20 23:05:17;;;;;;;7.88;3.83;;;7.00;96.70;;;;;;10384478;28;20029;-65
2021/12/20 23:10:17;;;;;;;9.68;4.20;;;6.90;96.80;;;;;;10396821;28;20033;-68
2021/12/20 23:15:29;;;;;;;8.68;3.80;;;7.10;96.80;;;;;;10396698;28;20026;-67
2021/12/20 23:20:31;;;;;;;9.00;3.88;;;6.90;96.70;;;;;;10397256;28;20357;-68
2021/12/20 23:25:44;;;;;;;7.43;3.92;;;6.90;96.80;;;;;;10390802;28;20508;-68
2021/12/20 23:30:45;;;;;;;8.57;4.05;;;6.90;96.70;;;;;;10389892;28;20464;-68
2021/12/20 23:35:47;;;;;;;10.20;4.35;;;6.80;96.70;;;;;;10400633;28;20017;-66
2021/12/20 23:40:57;;;;;;;9.75;4.15;;;6.80;96.70;;;;;;10396364;28;20049;-68
2021/12/20 23:45:58;;;;;;;8.35;4.28;;;6.80;96.70;;;;;;10390725;28;20033;-68
2021/12/20 23:50:59;;;;;;;9.25;4.30;;;6.80;96.60;;;;;;10401711;28;20041;-67
2021/12/20 23:56:01;;;;;;;11.95;4.22;;;6.80;96.60;;;;;;10403514;28;20053;-67
